createdAt,value
2023-01-10T00:01:56.773Z,2.13
2023-01-10T00:04:26.831Z,2.07
2023-01-10T00:06:55.187Z,1.97
2023-01-10T00:09:24.643Z,2.10
2023-01-10T00:12:10.407Z,2.30
2023-01-10T00:14:38.760Z,1.90
2023-01-10T00:17:07.049Z,2.10
2023-01-10T00:19:35.039Z,2.33
2023-01-10T00:22:13.999Z,1.70
2023-01-10T00:24:44.247Z,2.67
2023-01-10T00:27:17.368Z,2.77
2023-01-10T00:29:45.415Z,2.57
2023-01-10T00:32:13.427Z,2.50
2023-01-10T00:34:41.845Z,2.40
2023-01-10T00:37:09.925Z,2.50
2023-01-10T00:39:38.069Z,2.07
2023-01-10T00:42:25.389Z,2.90
2023-01-10T00:44:53.262Z,3.20
2023-01-10T00:47:21.828Z,2.50
2023-01-10T00:49:49.926Z,2.50
2023-01-10T00:52:18.489Z,2.67
2023-01-10T00:54:46.377Z,2.73
2023-01-10T00:57:16.312Z,3.20
2023-01-10T00:59:44.572Z,2.87
2023-01-10T01:02:13.057Z,2.70
2023-01-10T01:04:41.591Z,2.20
2023-01-10T01:07:09.957Z,2.70
2023-01-10T01:09:58.565Z,2.20
2023-01-10T01:12:28.397Z,2.60
2023-01-10T01:14:56.382Z,2.63
2023-01-10T01:17:24.822Z,2.13
2023-01-10T01:19:52.941Z,2.77
2023-01-10T01:22:21.501Z,2.10
2023-01-10T01:24:49.576Z,2.70
2023-01-10T01:27:18.272Z,1.90
2023-01-10T01:29:47.564Z,2.23
2023-01-10T01:32:15.787Z,2.03
2023-01-10T01:34:43.814Z,1.77
2023-01-10T01:37:12.241Z,2.43
2023-01-10T01:39:40.636Z,2.30
2023-01-10T01:42:22.096Z,2.60
2023-01-10T01:47:48.680Z,1.87
2023-01-10T01:50:20.237Z,1.70
2023-01-10T01:52:50.574Z,1.60
2023-01-10T01:55:19.460Z,2.90
2023-01-10T01:57:49.292Z,2.53
2023-01-10T02:00:17.748Z,2.00
2023-01-10T02:03:02.057Z,1.93
2023-01-10T02:05:34.329Z,2.07
2023-01-10T02:08:03.569Z,1.83
2023-01-10T02:10:38.209Z,2.10
2023-01-10T02:13:09.743Z,2.10
2023-01-10T02:15:37.776Z,2.37
2023-01-10T02:18:07.915Z,1.70
2023-01-10T02:20:46.243Z,1.80
2023-01-10T02:23:58.796Z,1.97
2023-01-10T02:27:07.987Z,1.83
2023-01-10T02:30:17.459Z,1.57
2023-01-10T02:33:04.273Z,3.40
2023-01-10T02:35:50.348Z,1.73
2023-01-10T02:38:25.707Z,1.33
2023-01-10T02:41:02.805Z,1.60
2023-01-10T02:43:35.811Z,1.50
2023-01-10T02:46:08.151Z,1.73
2023-01-10T02:48:37.538Z,1.50
2023-01-10T02:51:14.297Z,1.30
2023-01-10T02:53:47.620Z,1.70
2023-01-10T02:56:51.016Z,1.33
2023-01-10T02:59:54.778Z,1.70
2023-01-10T03:02:58.208Z,1.50
2023-01-10T03:05:41.928Z,1.53
2023-01-10T03:08:25.028Z,1.73
2023-01-10T03:10:59.353Z,2.23
2023-01-10T03:13:31.833Z,1.97
2023-01-10T03:16:02.779Z,2.77
2023-01-10T03:18:34.831Z,1.57
2023-01-10T03:21:06.538Z,1.60
2023-01-10T03:23:36.257Z,1.50
2023-01-10T03:26:06.910Z,1.70
2023-01-10T03:28:42.517Z,1.83
2023-01-10T03:31:15.935Z,1.70
2023-01-10T03:33:44.665Z,1.83
2023-01-10T03:36:21.238Z,1.80
2023-01-10T03:38:53.788Z,2.30
2023-01-10T03:41:32.505Z,1.90
2023-01-10T03:44:26.116Z,2.57
2023-01-10T03:46:58.057Z,2.07
2023-01-10T03:49:27.884Z,1.83
2023-01-10T03:51:59.521Z,1.93
2023-01-10T03:54:27.864Z,2.30
2023-01-10T03:56:55.777Z,2.13
2023-01-10T03:59:27.056Z,2.10
2023-01-10T04:01:56.256Z,2.00
2023-01-10T04:04:24.700Z,2.20
2023-01-10T04:06:52.816Z,2.30
2023-01-10T04:09:22.185Z,2.10
2023-01-10T04:11:50.009Z,2.20
2023-01-10T04:14:17.910Z,1.70
2023-01-10T04:16:46.173Z,1.90
2023-01-10T04:19:14.461Z,1.97
2023-01-10T04:21:42.577Z,2.00
2023-01-10T04:24:11.479Z,2.30
2023-01-10T04:26:40.925Z,2.10
2023-01-10T04:29:09.169Z,2.20
2023-01-10T04:31:37.491Z,2.40
2023-01-10T04:34:05.840Z,1.63
2023-01-10T04:36:33.995Z,2.00
2023-01-10T04:39:02.202Z,2.07
2023-01-10T04:41:30.230Z,2.13
2023-01-10T04:44:00.213Z,2.20
2023-01-10T04:46:28.149Z,2.97
2023-01-10T04:48:56.138Z,3.03
2023-01-10T04:51:24.279Z,2.50
2023-01-10T04:53:52.736Z,2.90
2023-01-10T04:56:23.170Z,2.60
2023-01-10T04:58:53.866Z,3.47
2023-01-10T05:01:25.552Z,3.50
2023-01-10T05:03:55.804Z,2.80
2023-01-10T05:06:25.559Z,3.40
2023-01-10T05:08:53.708Z,3.67
2023-01-10T05:11:21.875Z,3.10
2023-01-10T05:13:49.964Z,3.33
2023-01-10T05:16:18.595Z,3.67
2023-01-10T05:18:48.391Z,3.27
2023-01-10T05:21:16.761Z,2.77
2023-01-10T05:23:44.871Z,3.50
2023-01-10T05:26:15.394Z,3.10
2023-01-10T05:28:43.931Z,3.27
2023-01-10T05:31:15.131Z,2.87
2023-01-10T05:33:47.760Z,3.40
2023-01-10T05:36:15.825Z,3.17
2023-01-10T05:38:43.850Z,2.73
2023-01-10T05:41:12.214Z,2.90
2023-01-10T05:43:40.009Z,2.73
2023-01-10T05:46:08.504Z,2.50
2023-01-10T05:48:36.776Z,3.03
2023-01-10T05:51:06.443Z,2.30
2023-01-10T05:53:34.350Z,2.30
2023-01-10T05:56:03.889Z,2.27
2023-01-10T05:58:32.031Z,2.60
2023-01-10T06:01:00.411Z,2.87
2023-01-10T06:03:28.543Z,2.90
2023-01-10T06:05:57.268Z,2.60
2023-01-10T06:08:26.705Z,2.30
2023-01-10T06:10:54.947Z,2.77
2023-01-10T06:13:23.260Z,2.70
2023-01-10T06:15:52.404Z,3.47
2023-01-10T06:18:20.475Z,2.57
2023-01-10T06:20:48.631Z,3.17
2023-01-10T06:23:17.104Z,3.00
2023-01-10T06:25:47.746Z,3.37
2023-01-10T06:28:16.772Z,3.57
2023-01-10T06:30:45.215Z,3.53
2023-01-10T06:33:14.404Z,3.20
2023-01-10T06:35:43.810Z,3.60
2023-01-10T06:38:12.565Z,3.20
2023-01-10T06:40:40.867Z,3.13
2023-01-10T06:43:10.835Z,3.30
2023-01-10T06:45:38.803Z,13.37
2023-01-10T06:48:07.976Z,5.93
2023-01-10T06:50:38.622Z,3.63
2023-01-10T06:53:07.568Z,21.07
2023-01-10T06:55:36.699Z,22.03
2023-01-10T06:58:08.319Z,10.87
2023-01-10T07:00:38.368Z,7.50
2023-01-10T07:03:06.685Z,18.63
2023-01-10T07:05:35.447Z,3.90
2023-01-10T07:08:04.884Z,9.60
2023-01-10T07:10:33.849Z,7.23
2023-01-10T07:13:03.503Z,3.30
2023-01-10T07:15:31.846Z,3.83
2023-01-10T07:18:01.884Z,3.83
2023-01-10T07:20:30.939Z,4.00
2023-01-10T07:23:01.069Z,4.90
2023-01-10T07:25:30.907Z,3.20
2023-01-10T07:27:59.513Z,5.47
2023-01-10T07:30:27.858Z,3.70
2023-01-10T07:33:01.972Z,5.07
2023-01-10T07:35:31.909Z,4.37
2023-01-10T07:38:00.981Z,3.13
2023-01-10T07:40:29.914Z,3.37
2023-01-10T07:42:58.499Z,3.87
2023-01-10T07:45:28.216Z,3.43
2023-01-10T07:47:58.556Z,4.00
2023-01-10T07:50:27.678Z,3.50
2023-01-10T07:52:57.412Z,4.10
2023-01-10T07:55:25.894Z,4.13
2023-01-10T07:57:54.239Z,3.30
2023-01-10T08:00:22.755Z,3.37
2023-01-10T08:02:55.367Z,4.10
2023-01-10T08:05:24.326Z,3.97
2023-01-10T08:07:53.875Z,4.27
2023-01-10T08:10:23.880Z,6.57
2023-01-10T08:12:52.560Z,9.40
2023-01-10T08:15:21.581Z,3.63
2023-01-10T08:17:50.423Z,3.60
2023-01-10T08:20:19.131Z,3.80
2023-01-10T08:22:47.583Z,4.23
2023-01-10T08:25:15.913Z,3.00
2023-01-10T08:27:45.978Z,3.50
2023-01-10T08:30:14.975Z,3.20
2023-01-10T08:32:43.514Z,2.80
2023-01-10T08:35:12.160Z,3.67
2023-01-10T08:37:40.649Z,2.70
2023-01-10T08:40:10.160Z,3.27
2023-01-10T08:42:38.843Z,3.60
2023-01-10T08:45:10.201Z,3.87
2023-01-10T08:47:38.770Z,3.53
2023-01-10T08:50:08.098Z,3.83
2023-01-10T08:52:36.665Z,4.00
2023-01-10T08:55:04.881Z,3.53
2023-01-10T08:57:33.061Z,4.00
2023-01-10T09:00:01.060Z,3.57
2023-01-10T09:02:31.036Z,3.63
2023-01-10T09:04:59.390Z,3.50
2023-01-10T09:07:28.627Z,2.83
2023-01-10T09:09:56.765Z,2.90
2023-01-10T09:12:38.994Z,2.60
2023-01-10T09:15:08.405Z,4.10
2023-01-10T09:17:38.440Z,3.30
2023-01-10T09:20:10.262Z,2.80
2023-01-10T09:22:38.869Z,3.47
2023-01-10T09:25:07.994Z,2.33
2023-01-10T09:27:36.187Z,3.07
2023-01-10T09:30:04.761Z,2.07
2023-01-10T09:32:35.133Z,2.60
2023-01-10T09:35:05.051Z,2.27
2023-01-10T09:37:34.920Z,1.80
2023-01-10T09:40:02.966Z,3.13
2023-01-10T09:42:51.086Z,2.87
2023-01-10T09:45:23.344Z,2.77
2023-01-10T09:47:57.109Z,2.97
2023-01-10T09:50:33.414Z,2.60
2023-01-10T09:53:10.100Z,4.10
2023-01-10T09:55:40.571Z,2.60
2023-01-10T09:58:13.629Z,2.83
2023-01-10T10:00:45.981Z,2.63
2023-01-10T10:03:25.784Z,3.27
2023-01-10T10:06:10.553Z,3.30
2023-01-10T10:08:41.039Z,2.83
2023-01-10T10:11:30.316Z,2.60
2023-01-10T10:14:08.512Z,2.40
2023-01-10T10:16:49.980Z,3.00
2023-01-10T10:19:25.461Z,3.60
2023-01-10T10:22:08.860Z,2.70
2023-01-10T10:24:51.067Z,2.77
2023-01-10T10:27:24.643Z,2.93
2023-01-10T10:30:10.073Z,2.17
2023-01-10T10:32:58.478Z,2.37
2023-01-10T10:35:31.111Z,1.83
2023-01-10T10:38:06.084Z,2.27
2023-01-10T10:40:38.751Z,2.93
2023-01-10T10:43:16.448Z,2.80
2023-01-10T10:45:48.676Z,2.80
2023-01-10T10:48:22.891Z,2.13
2023-01-10T10:51:02.358Z,2.37
2023-01-10T10:53:34.881Z,2.80
2023-01-10T10:56:05.730Z,2.83
2023-01-10T10:58:35.067Z,2.17
2023-01-10T11:01:03.613Z,2.10
2023-01-10T11:03:40.024Z,2.23
2023-01-10T11:06:10.440Z,2.20
2023-01-10T11:08:44.011Z,2.30
2023-01-10T11:11:20.988Z,2.70
2023-01-10T11:13:56.537Z,2.40
2023-01-10T11:16:28.303Z,2.13
2023-01-10T11:19:13.673Z,2.10
2023-01-10T11:21:43.649Z,2.10
2023-01-10T11:24:24.883Z,2.20
2023-01-10T11:26:54.167Z,2.60
2023-01-10T11:29:28.349Z,3.00
2023-01-10T11:31:58.512Z,3.20
2023-01-10T11:34:30.218Z,3.07
2023-01-10T11:37:01.715Z,4.13
2023-01-10T11:39:33.675Z,3.73
2023-01-10T11:42:29.561Z,3.27
2023-01-10T11:45:14.755Z,2.83
2023-01-10T11:47:46.456Z,3.17
2023-01-10T11:50:23.012Z,2.20
2023-01-10T11:52:52.227Z,3.30
2023-01-10T11:55:24.808Z,2.40
2023-01-10T11:58:02.910Z,3.17
2023-01-10T12:00:39.689Z,2.03
2023-01-10T12:03:21.627Z,3.50
2023-01-10T12:05:54.878Z,3.30
2023-01-10T12:08:29.786Z,3.47
2023-01-10T12:11:03.212Z,3.30
2023-01-10T12:13:44.158Z,3.00
2023-01-10T12:16:26.785Z,4.27
2023-01-10T12:18:57.832Z,2.60
2023-01-10T12:21:31.819Z,2.60
2023-01-10T12:24:05.433Z,2.97
2023-01-10T12:26:36.843Z,3.30
2023-01-10T12:29:12.133Z,3.30
2023-01-10T12:31:42.101Z,3.50
2023-01-10T12:34:20.683Z,3.00
2023-01-10T12:36:59.887Z,3.40
2023-01-10T12:39:34.337Z,3.73
2023-01-10T12:42:35.569Z,6.00
2023-01-10T12:45:11.618Z,4.40
2023-01-10T12:47:57.443Z,3.73
2023-01-10T12:50:32.621Z,3.90
2023-01-10T12:53:05.044Z,3.40
2023-01-10T12:55:40.872Z,4.30
2023-01-10T12:58:22.576Z,3.87
2023-01-10T13:00:55.264Z,3.77
2023-01-10T13:03:30.133Z,4.00
2023-01-10T13:06:00.290Z,3.40
2023-01-10T13:08:32.185Z,3.60
2023-01-10T13:11:02.196Z,4.13
2023-01-10T13:13:36.499Z,3.83
2023-01-10T13:16:21.208Z,3.43
2023-01-10T13:19:24.219Z,2.27
2023-01-10T13:22:13.336Z,2.37
2023-01-10T13:24:41.931Z,2.70
2023-01-10T13:27:21.265Z,3.00
2023-01-10T13:29:51.524Z,3.87
2023-01-10T13:32:25.193Z,2.30
2023-01-10T13:34:54.676Z,2.23
2023-01-10T13:37:27.650Z,2.60
2023-01-10T13:40:00.231Z,3.00
2023-01-10T13:42:50.904Z,2.30
2023-01-10T13:45:27.017Z,2.47
2023-01-10T13:48:01.294Z,4.53
2023-01-10T13:50:52.323Z,2.83
2023-01-10T13:53:47.372Z,3.27
2023-01-10T13:56:38.448Z,3.60
2023-01-10T13:59:31.060Z,2.87
2023-01-10T14:02:20.618Z,3.40
2023-01-10T14:04:54.051Z,2.60
2023-01-10T14:07:30.126Z,3.63
2023-01-10T14:10:05.010Z,3.90
2023-01-10T14:12:39.685Z,3.30
2023-01-10T14:15:22.449Z,3.30
2023-01-10T14:17:59.273Z,3.90
2023-01-10T14:20:28.832Z,3.20
2023-01-10T14:23:04.332Z,3.60
2023-01-10T14:25:35.293Z,3.73
2023-01-10T14:28:04.402Z,4.53
2023-01-10T14:30:38.505Z,4.37
2023-01-10T14:33:15.081Z,4.90
2023-01-10T14:35:48.838Z,5.03
2023-01-10T14:38:22.519Z,5.57
2023-01-10T14:40:54.073Z,4.63
2023-01-10T14:43:28.081Z,3.93
2023-01-10T14:46:04.590Z,4.50
2023-01-10T14:48:36.390Z,3.70
2023-01-10T14:51:21.407Z,4.07
2023-01-10T14:53:57.414Z,4.30
2023-01-10T14:56:28.165Z,3.30
2023-01-10T14:58:56.642Z,3.10
2023-01-10T15:01:28.323Z,4.10
2023-01-10T15:03:59.128Z,3.40
2023-01-10T15:06:27.608Z,3.93
2023-01-10T15:09:01.486Z,4.00
2023-01-10T15:11:33.712Z,5.07
2023-01-10T15:14:07.899Z,3.77
2023-01-10T15:16:37.087Z,3.00
2023-01-10T15:19:07.188Z,3.07
2023-01-10T15:21:35.281Z,3.30
2023-01-10T15:24:32.131Z,4.97
2023-01-10T15:27:03.596Z,4.50
2023-01-10T15:29:33.325Z,4.27
2023-01-10T15:32:10.247Z,4.00
2023-01-10T15:34:42.654Z,3.70
2023-01-10T15:37:23.291Z,4.83
2023-01-10T15:39:51.772Z,4.00
2023-01-10T15:42:22.862Z,4.30
2023-01-10T15:44:59.029Z,4.27
2023-01-10T15:47:39.265Z,3.80
2023-01-10T15:50:23.115Z,3.37
2023-01-10T15:52:53.494Z,3.90
2023-01-10T15:55:39.549Z,4.00
2023-01-10T15:58:14.960Z,3.80
2023-01-10T16:00:46.023Z,4.10
2023-01-10T16:03:25.335Z,3.57
2023-01-10T16:05:59.408Z,4.50
2023-01-10T16:08:29.826Z,4.20
2023-01-10T16:11:00.465Z,3.60
2023-01-10T16:13:28.267Z,3.50
2023-01-10T16:15:57.335Z,6.37
2023-01-10T16:18:27.388Z,5.00
2023-01-10T16:21:00.085Z,4.33
2023-01-10T16:23:31.679Z,4.50
2023-01-10T16:26:02.277Z,4.00
2023-01-10T16:28:35.932Z,3.70
2023-01-10T16:31:06.557Z,4.40
2023-01-10T16:33:36.963Z,4.30
2023-01-10T16:36:15.290Z,4.43
2023-01-10T16:38:44.348Z,3.87
2023-01-10T16:41:30.930Z,3.33
2023-01-10T16:43:59.334Z,4.00
2023-01-10T16:46:27.225Z,4.10
2023-01-10T16:48:55.563Z,4.30
2023-01-10T16:51:27.660Z,4.83
2023-01-10T16:53:59.257Z,6.07
2023-01-10T16:56:30.181Z,4.00
2023-01-10T16:58:59.159Z,3.50
2023-01-10T17:01:31.237Z,4.30
2023-01-10T17:04:00.953Z,4.17
2023-01-10T17:06:30.601Z,4.10
2023-01-10T17:08:59.186Z,4.20
2023-01-10T17:11:29.106Z,3.83
2023-01-10T17:13:57.299Z,4.50
2023-01-10T17:16:28.898Z,4.33
2023-01-10T17:18:57.519Z,4.13
2023-01-10T17:21:25.869Z,4.63
2023-01-10T17:23:55.522Z,4.93
2023-01-10T17:26:23.938Z,5.60
2023-01-10T17:28:52.076Z,5.47
2023-01-10T17:31:20.520Z,5.70
2023-01-10T17:33:50.506Z,7.13
2023-01-10T17:36:19.591Z,5.13
2023-01-10T17:38:48.190Z,3.90
2023-01-10T17:41:17.534Z,4.97
2023-01-10T17:43:45.629Z,4.10
2023-01-10T17:46:14.025Z,4.27
2023-01-10T17:48:42.408Z,3.50
2023-01-10T17:51:11.842Z,3.83
2023-01-10T17:53:40.216Z,3.63
2023-01-10T17:56:09.237Z,3.57
2023-01-10T17:58:38.841Z,3.80
2023-01-10T18:01:06.933Z,5.10
2023-01-10T18:03:35.275Z,5.47
2023-01-10T18:06:05.542Z,3.70
2023-01-10T18:08:33.830Z,5.43
2023-01-10T18:11:02.257Z,5.03
2023-01-10T18:13:31.623Z,4.03
2023-01-10T18:16:01.780Z,3.63
2023-01-10T18:18:30.573Z,4.67
2023-01-10T18:21:02.081Z,5.00
2023-01-10T18:23:31.877Z,4.90
2023-01-10T18:26:01.866Z,4.70
2023-01-10T18:28:40.668Z,6.20
2023-01-10T18:31:13.327Z,5.00
2023-01-10T18:33:41.939Z,4.13
2023-01-10T18:36:14.756Z,4.93
2023-01-10T18:38:43.859Z,5.40
2023-01-10T18:41:11.907Z,6.30
2023-01-10T18:43:40.988Z,4.97
2023-01-10T18:46:13.996Z,5.47
2023-01-10T18:48:42.355Z,5.30
2023-01-10T18:51:14.038Z,4.77
2023-01-10T18:53:43.212Z,5.00
2023-01-10T18:56:12.348Z,5.30
2023-01-10T18:58:42.850Z,4.93
2023-01-10T19:01:14.705Z,5.40
2023-01-10T19:03:44.066Z,5.00
2023-01-10T19:06:16.016Z,5.90
2023-01-10T19:08:45.045Z,6.07
2023-01-10T19:11:16.266Z,5.40
2023-01-10T19:13:45.674Z,5.10
2023-01-10T19:16:17.448Z,5.60
2023-01-10T19:18:49.513Z,4.73
2023-01-10T19:21:17.505Z,5.10
2023-01-10T19:23:47.926Z,5.73
2023-01-10T19:26:16.554Z,4.70
2023-01-10T19:28:45.638Z,5.20
2023-01-10T19:31:17.929Z,4.90
2023-01-10T19:33:48.057Z,4.87
2023-01-10T19:36:16.875Z,5.53
2023-01-10T19:38:45.352Z,4.80
2023-01-10T19:41:14.118Z,5.43
2023-01-10T19:43:42.370Z,4.43
2023-01-10T19:46:14.112Z,5.60
2023-01-10T19:48:43.529Z,4.93
2023-01-10T19:51:13.593Z,5.07
2023-01-10T19:53:45.678Z,4.63
2023-01-10T19:56:18.401Z,5.17
2023-01-10T19:58:47.181Z,5.80
2023-01-10T20:01:16.782Z,4.20
2023-01-10T20:03:47.671Z,5.60
2023-01-10T20:06:18.739Z,6.63
2023-01-10T20:08:48.721Z,4.10
2023-01-10T20:11:18.766Z,4.00
2023-01-10T20:13:49.614Z,5.27
2023-01-10T20:16:21.071Z,6.43
2023-01-10T20:18:53.282Z,6.77
2023-01-10T20:21:22.248Z,8.10
2023-01-10T20:23:51.360Z,7.80
2023-01-10T20:26:22.034Z,6.87
2023-01-10T20:28:50.966Z,7.03
2023-01-10T20:31:23.915Z,6.60
2023-01-10T20:33:54.054Z,5.97
2023-01-10T20:36:24.232Z,4.63
2023-01-10T20:38:52.900Z,5.00
2023-01-10T20:41:23.170Z,4.50
2023-01-10T20:43:51.688Z,4.77
2023-01-10T20:46:22.246Z,4.40
2023-01-10T20:48:50.824Z,4.60
2023-01-10T20:51:22.397Z,5.90
2023-01-10T20:53:51.445Z,3.80
2023-01-10T20:56:21.829Z,3.80
2023-01-10T20:58:50.781Z,3.40
2023-01-10T21:01:33.199Z,3.30
2023-01-10T21:04:03.555Z,3.27
2023-01-10T21:06:33.739Z,2.87
2023-01-10T21:09:01.928Z,3.23
2023-01-10T21:11:30.981Z,3.33
2023-01-10T21:13:59.308Z,2.87
2023-01-10T21:16:27.859Z,2.47
2023-01-10T21:18:56.180Z,2.67
2023-01-10T21:21:25.039Z,3.23
2023-01-10T21:23:55.723Z,2.60
2023-01-10T21:26:24.661Z,2.47
2023-01-10T21:28:55.746Z,3.00
2023-01-10T21:31:23.770Z,3.03
2023-01-10T21:33:52.269Z,3.37
2023-01-10T21:36:20.955Z,3.60
2023-01-10T21:38:49.537Z,3.20
2023-01-10T21:41:41.665Z,5.40
2023-01-10T21:44:10.211Z,2.50
2023-01-10T21:46:38.657Z,3.20
2023-01-10T21:49:06.867Z,3.23
2023-01-10T21:51:35.358Z,2.67
2023-01-10T21:54:03.296Z,3.30
2023-01-10T21:56:33.111Z,2.77
2023-01-10T21:59:00.942Z,2.90
2023-01-10T22:01:29.209Z,2.10
2023-01-10T22:03:57.171Z,2.50
2023-01-10T22:06:25.142Z,2.90
2023-01-10T22:08:54.649Z,3.03
2023-01-10T22:11:22.769Z,2.90
2023-01-10T22:13:53.294Z,3.30
2023-01-10T22:16:21.231Z,2.43
2023-01-10T22:18:49.202Z,3.37
2023-01-10T22:21:19.995Z,3.10
2023-01-10T22:23:47.746Z,3.20
2023-01-10T22:26:17.595Z,3.10
2023-01-10T22:28:45.318Z,2.60
2023-01-10T22:31:15.073Z,2.87
2023-01-10T22:33:43.060Z,3.33
2023-01-10T22:36:15.551Z,2.97
2023-01-10T22:38:43.620Z,2.77
2023-01-10T22:41:13.757Z,3.80
2023-01-10T22:43:41.824Z,2.60
2023-01-10T22:46:11.195Z,2.20
2023-01-10T22:48:40.499Z,2.77
2023-01-10T22:51:09.021Z,3.20
2023-01-10T22:53:36.862Z,13.33
2023-01-10T22:56:07.025Z,7.53
2023-01-10T22:58:34.983Z,3.40
2023-01-10T23:01:08.824Z,4.30
2023-01-10T23:03:37.379Z,2.90
2023-01-10T23:06:07.702Z,2.83
2023-01-10T23:08:47.249Z,2.33
2023-01-10T23:11:22.558Z,3.20
2023-01-10T23:14:12.242Z,2.53
2023-01-10T23:16:55.558Z,2.87
2023-01-10T23:19:24.164Z,2.40
2023-01-10T23:21:56.732Z,2.20
2023-01-10T23:24:27.578Z,2.23
2023-01-10T23:26:59.528Z,2.80
2023-01-10T23:29:33.209Z,3.03
2023-01-10T23:32:01.481Z,1.90
2023-01-10T23:34:29.503Z,2.80
2023-01-10T23:36:59.026Z,2.40
2023-01-10T23:39:26.802Z,2.40
2023-01-10T23:41:54.941Z,2.50
2023-01-10T23:44:22.965Z,2.10
2023-01-10T23:46:50.888Z,2.70
2023-01-10T23:49:18.683Z,1.50
2023-01-10T23:51:46.762Z,1.87
2023-01-10T23:54:17.304Z,1.77
2023-01-10T23:56:45.605Z,2.67
2023-01-10T23:59:13.421Z,2.00
